sensor_id;sensor_type;location;lat;lon;timestamp;P1;durP1;ratioP1;P2;durP2;ratioP2
9547;SDS011;4812;51.992;8.648;2022-09-02T00:00:09;12.47;;;11.77;;
9547;SDS011;4812;51.992;8.648;2022-09-02T00:02:39;12.47;;;11.77;;
9547;SDS011;4812;51.992;8.648;2022-09-02T00:05:08;12.53;;;11.83;;
9547;SDS011;4812;51.992;8.648;2022-09-02T00:10:33;12.83;;;11.93;;
9547;SDS011;4812;51.992;8.648;2022-09-02T00:13:02;12.00;;;11.40;;
9547;SDS011;4812;51.992;8.648;2022-09-02T00:15:30;12.47;;;11.87;;
9547;SDS011;4812;51.992;8.648;2022-09-02T00:17:59;12.30;;;11.67;;
9547;SDS011;4812;51.992;8.648;2022-09-02T00:20:28;12.93;;;12.07;;
9547;SDS011;4812;51.992;8.648;2022-09-02T00:22:57;13.40;;;12.70;;
9547;SDS011;4812;51.992;8.648;2022-09-02T00:25:25;13.47;;;12.57;;
9547;SDS011;4812;51.992;8.648;2022-09-02T00:27:53;13.60;;;12.77;;
9547;SDS011;4812;51.992;8.648;2022-09-02T00:30:20;13.20;;;12.50;;
9547;SDS011;4812;51.992;8.648;2022-09-02T00:32:48;13.93;;;13.13;;
9547;SDS011;4812;51.992;8.648;2022-09-02T00:35:16;13.00;;;12.30;;
9547;SDS011;4812;51.992;8.648;2022-09-02T00:37:45;13.10;;;12.40;;
9547;SDS011;4812;51.992;8.648;2022-09-02T00:40:13;13.87;;;13.07;;
9547;SDS011;4812;51.992;8.648;2022-09-02T00:42:42;13.23;;;12.53;;
9547;SDS011;4812;51.992;8.648;2022-09-02T00:45:10;13.63;;;12.67;;
9547;SDS011;4812;51.992;8.648;2022-09-02T00:47:38;12.87;;;12.17;;
9547;SDS011;4812;51.992;8.648;2022-09-02T00:50:07;13.93;;;13.13;;
9547;SDS011;4812;51.992;8.648;2022-09-02T00:52:37;13.50;;;12.60;;
9547;SDS011;4812;51.992;8.648;2022-09-02T00:55:11;14.97;;;14.17;;
9547;SDS011;4812;51.992;8.648;2022-09-02T00:57:43;14.60;;;13.80;;
9547;SDS011;4812;51.992;8.648;2022-09-02T01:00:14;15.30;;;14.30;;
9547;SDS011;4812;51.992;8.648;2022-09-02T01:02:45;15.50;;;14.43;;
9547;SDS011;4812;51.992;8.648;2022-09-02T01:05:15;15.70;;;14.80;;
9547;SDS011;4812;51.992;8.648;2022-09-02T01:07:44;15.80;;;14.70;;
9547;SDS011;4812;51.992;8.648;2022-09-02T01:10:15;15.83;;;14.80;;
9547;SDS011;4812;51.992;8.648;2022-09-02T01:12:45;15.17;;;14.37;;
9547;SDS011;4812;51.992;8.648;2022-09-02T01:15:14;15.20;;;14.40;;
9547;SDS011;4812;51.992;8.648;2022-09-02T01:17:44;15.07;;;14.27;;
9547;SDS011;4812;51.992;8.648;2022-09-02T01:20:17;16.00;;;15.10;;
9547;SDS011;4812;51.992;8.648;2022-09-02T01:22:52;16.00;;;15.10;;
9547;SDS011;4812;51.992;8.648;2022-09-02T01:25:23;16.33;;;15.33;;
9547;SDS011;4812;51.992;8.648;2022-09-02T01:27:57;15.80;;;14.90;;
9547;SDS011;4812;51.992;8.648;2022-09-02T01:30:25;15.17;;;14.27;;
9547;SDS011;4812;51.992;8.648;2022-09-02T01:32:53;15.90;;;15.00;;
9547;SDS011;4812;51.992;8.648;2022-09-02T01:35:21;16.30;;;15.30;;
9547;SDS011;4812;51.992;8.648;2022-09-02T01:37:52;16.23;;;15.33;;
9547;SDS011;4812;51.992;8.648;2022-09-02T01:40:22;16.57;;;15.47;;
9547;SDS011;4812;51.992;8.648;2022-09-02T01:42:52;16.13;;;15.13;;
9547;SDS011;4812;51.992;8.648;2022-09-02T01:45:21;16.70;;;15.50;;
9547;SDS011;4812;51.992;8.648;2022-09-02T01:47:49;16.60;;;15.70;;
9547;SDS011;4812;51.992;8.648;2022-09-02T01:50:17;16.53;;;15.50;;
9547;SDS011;4812;51.992;8.648;2022-09-02T01:52:46;17.10;;;16.00;;
9547;SDS011;4812;51.992;8.648;2022-09-02T01:55:14;16.63;;;15.63;;
9547;SDS011;4812;51.992;8.648;2022-09-02T01:57:42;17.00;;;15.80;;
9547;SDS011;4812;51.992;8.648;2022-09-02T02:00:11;17.90;;;16.50;;
9547;SDS011;4812;51.992;8.648;2022-09-02T02:02:40;16.80;;;15.80;;
9547;SDS011;4812;51.992;8.648;2022-09-02T02:05:10;17.10;;;16.10;;
9547;SDS011;4812;51.992;8.648;2022-09-02T02:07:39;16.60;;;15.60;;
9547;SDS011;4812;51.992;8.648;2022-09-02T02:10:07;17.00;;;16.00;;
9547;SDS011;4812;51.992;8.648;2022-09-02T02:12:37;17.23;;;16.07;;
9547;SDS011;4812;51.992;8.648;2022-09-02T02:15:07;17.43;;;16.20;;
9547;SDS011;4812;51.992;8.648;2022-09-02T02:17:37;16.40;;;15.40;;
9547;SDS011;4812;51.992;8.648;2022-09-02T02:20:06;17.00;;;15.80;;
9547;SDS011;4812;51.992;8.648;2022-09-02T02:22:35;16.70;;;15.70;;
9547;SDS011;4812;51.992;8.648;2022-09-02T02:25:03;16.50;;;15.50;;
9547;SDS011;4812;51.992;8.648;2022-09-02T02:27:31;17.10;;;16.03;;
9547;SDS011;4812;51.992;8.648;2022-09-02T02:30:04;17.23;;;16.10;;
9547;SDS011;4812;51.992;8.648;2022-09-02T02:32:34;17.43;;;16.23;;
9547;SDS011;4812;51.992;8.648;2022-09-02T02:35:03;17.03;;;15.97;;
9547;SDS011;4812;51.992;8.648;2022-09-02T02:37:32;16.67;;;15.57;;
9547;SDS011;4812;51.992;8.648;2022-09-02T02:40:00;17.00;;;16.00;;
9547;SDS011;4812;51.992;8.648;2022-09-02T02:42:28;16.93;;;15.83;;
9547;SDS011;4812;51.992;8.648;2022-09-02T02:44:57;16.23;;;15.23;;
9547;SDS011;4812;51.992;8.648;2022-09-02T02:47:26;16.23;;;15.23;;
9547;SDS011;4812;51.992;8.648;2022-09-02T02:49:54;16.03;;;15.03;;
9547;SDS011;4812;51.992;8.648;2022-09-02T02:52:22;16.40;;;15.30;;
9547;SDS011;4812;51.992;8.648;2022-09-02T02:54:51;16.33;;;15.33;;
9547;SDS011;4812;51.992;8.648;2022-09-02T02:57:19;16.10;;;15.00;;
9547;SDS011;4812;51.992;8.648;2022-09-02T02:59:49;15.80;;;14.70;;
9547;SDS011;4812;51.992;8.648;2022-09-02T03:02:17;14.83;;;14.03;;
9547;SDS011;4812;51.992;8.648;2022-09-02T03:04:47;15.57;;;14.43;;
9547;SDS011;4812;51.992;8.648;2022-09-02T03:07:19;15.67;;;14.67;;
9547;SDS011;4812;51.992;8.648;2022-09-02T03:09:47;15.57;;;14.33;;
9547;SDS011;4812;51.992;8.648;2022-09-02T03:12:14;15.43;;;14.53;;
9547;SDS011;4812;51.992;8.648;2022-09-02T03:14:43;15.97;;;14.97;;
9547;SDS011;4812;51.992;8.648;2022-09-02T03:17:11;15.90;;;14.83;;
9547;SDS011;4812;51.992;8.648;2022-09-02T03:19:38;15.20;;;14.30;;
9547;SDS011;4812;51.992;8.648;2022-09-02T03:22:08;15.50;;;14.57;;
9547;SDS011;4812;51.992;8.648;2022-09-02T03:24:36;15.73;;;14.60;;
9547;SDS011;4812;51.992;8.648;2022-09-02T03:27:05;15.77;;;14.77;;
9547;SDS011;4812;51.992;8.648;2022-09-02T03:29:33;15.80;;;14.90;;
9547;SDS011;4812;51.992;8.648;2022-09-02T03:32:01;15.70;;;14.70;;
9547;SDS011;4812;51.992;8.648;2022-09-02T03:34:29;15.40;;;14.50;;
9547;SDS011;4812;51.992;8.648;2022-09-02T03:36:57;15.37;;;14.37;;
9547;SDS011;4812;51.992;8.648;2022-09-02T03:39:27;15.13;;;14.13;;
9547;SDS011;4812;51.992;8.648;2022-09-02T03:41:54;14.70;;;13.60;;
9547;SDS011;4812;51.992;8.648;2022-09-02T03:44:23;14.40;;;13.50;;
9547;SDS011;4812;51.992;8.648;2022-09-02T03:46:51;14.27;;;13.43;;
9547;SDS011;4812;51.992;8.648;2022-09-02T03:49:19;14.80;;;13.70;;
9547;SDS011;4812;51.992;8.648;2022-09-02T03:51:47;14.63;;;13.73;;
9547;SDS011;4812;51.992;8.648;2022-09-02T03:54:15;15.03;;;13.80;;
9547;SDS011;4812;51.992;8.648;2022-09-02T03:56:44;14.53;;;13.47;;
9547;SDS011;4812;51.992;8.648;2022-09-02T03:59:13;14.43;;;13.53;;
9547;SDS011;4812;51.992;8.648;2022-09-02T04:01:43;15.03;;;13.93;;
9547;SDS011;4812;51.992;8.648;2022-09-02T04:04:12;14.80;;;13.90;;
9547;SDS011;4812;51.992;8.648;2022-09-02T04:06:40;14.80;;;13.90;;
9547;SDS011;4812;51.992;8.648;2022-09-02T04:09:07;15.20;;;13.97;;
9547;SDS011;4812;51.992;8.648;2022-09-02T04:11:38;14.63;;;13.70;;
9547;SDS011;4812;51.992;8.648;2022-09-02T04:14:09;15.03;;;14.03;;
9547;SDS011;4812;51.992;8.648;2022-09-02T04:16:37;14.80;;;13.60;;
9547;SDS011;4812;51.992;8.648;2022-09-02T04:19:07;15.80;;;14.70;;
9547;SDS011;4812;51.992;8.648;2022-09-02T04:21:37;15.30;;;14.30;;
9547;SDS011;4812;51.992;8.648;2022-09-02T04:24:07;15.17;;;14.17;;
9547;SDS011;4812;51.992;8.648;2022-09-02T04:26:38;15.30;;;14.20;;
9547;SDS011;4812;51.992;8.648;2022-09-02T04:29:13;15.03;;;14.13;;
9547;SDS011;4812;51.992;8.648;2022-09-02T04:31:42;15.10;;;14.00;;
9547;SDS011;4812;51.992;8.648;2022-09-02T04:34:09;15.43;;;14.23;;
9547;SDS011;4812;51.992;8.648;2022-09-02T04:36:39;15.03;;;14.03;;
9547;SDS011;4812;51.992;8.648;2022-09-02T04:39:09;15.10;;;14.20;;
9547;SDS011;4812;51.992;8.648;2022-09-02T04:41:37;14.80;;;13.90;;
9547;SDS011;4812;51.992;8.648;2022-09-02T04:44:08;15.33;;;14.23;;
9547;SDS011;4812;51.992;8.648;2022-09-02T04:46:40;14.93;;;13.93;;
9547;SDS011;4812;51.992;8.648;2022-09-02T04:49:12;14.57;;;13.57;;
9547;SDS011;4812;51.992;8.648;2022-09-02T04:51:42;14.90;;;13.80;;
9547;SDS011;4812;51.992;8.648;2022-09-02T04:54:10;14.10;;;13.20;;
9547;SDS011;4812;51.992;8.648;2022-09-02T04:56:40;13.90;;;12.90;;
9547;SDS011;4812;51.992;8.648;2022-09-02T04:59:08;13.73;;;12.73;;
9547;SDS011;4812;51.992;8.648;2022-09-02T05:01:42;13.27;;;12.47;;
9547;SDS011;4812;51.992;8.648;2022-09-02T05:04:15;13.90;;;13.00;;
9547;SDS011;4812;51.992;8.648;2022-09-02T05:06:47;13.90;;;12.90;;
9547;SDS011;4812;51.992;8.648;2022-09-02T05:09:17;13.60;;;12.57;;
9547;SDS011;4812;51.992;8.648;2022-09-02T05:11:53;13.33;;;12.43;;
9547;SDS011;4812;51.992;8.648;2022-09-02T05:14:25;13.43;;;12.53;;
9547;SDS011;4812;51.992;8.648;2022-09-02T05:16:58;13.47;;;12.57;;
9547;SDS011;4812;51.992;8.648;2022-09-02T05:19:34;14.03;;;13.00;;
9547;SDS011;4812;51.992;8.648;2022-09-02T05:22:01;13.77;;;12.97;;
9547;SDS011;4812;51.992;8.648;2022-09-02T05:24:34;14.27;;;13.47;;
9547;SDS011;4812;51.992;8.648;2022-09-02T05:27:05;14.77;;;13.47;;
9547;SDS011;4812;51.992;8.648;2022-09-02T05:29:34;15.10;;;14.10;;
9547;SDS011;4812;51.992;8.648;2022-09-02T05:32:04;14.83;;;13.83;;
9547;SDS011;4812;51.992;8.648;2022-09-02T05:34:34;15.37;;;14.37;;
9547;SDS011;4812;51.992;8.648;2022-09-02T05:37:02;15.60;;;14.70;;
9547;SDS011;4812;51.992;8.648;2022-09-02T05:39:32;16.07;;;15.07;;
9547;SDS011;4812;51.992;8.648;2022-09-02T05:42:00;15.33;;;14.43;;
9547;SDS011;4812;51.992;8.648;2022-09-02T05:44:28;16.10;;;15.03;;
9547;SDS011;4812;51.992;8.648;2022-09-02T05:46:57;16.07;;;15.10;;
9547;SDS011;4812;51.992;8.648;2022-09-02T05:49:27;16.10;;;15.10;;
9547;SDS011;4812;51.992;8.648;2022-09-02T05:52:08;16.40;;;15.40;;
9547;SDS011;4812;51.992;8.648;2022-09-02T05:54:43;16.20;;;15.17;;
9547;SDS011;4812;51.992;8.648;2022-09-02T05:57:14;15.97;;;14.97;;
9547;SDS011;4812;51.992;8.648;2022-09-02T05:59:52;16.40;;;15.40;;
9547;SDS011;4812;51.992;8.648;2022-09-02T06:02:26;16.60;;;15.40;;
9547;SDS011;4812;51.992;8.648;2022-09-02T06:04:55;16.70;;;15.50;;
9547;SDS011;4812;51.992;8.648;2022-09-02T06:07:24;16.50;;;15.40;;
9547;SDS011;4812;51.992;8.648;2022-09-02T06:09:55;17.07;;;15.90;;
9547;SDS011;4812;51.992;8.648;2022-09-02T06:12:24;16.83;;;15.80;;
9547;SDS011;4812;51.992;8.648;2022-09-02T06:14:53;17.80;;;16.50;;
9547;SDS011;4812;51.992;8.648;2022-09-02T06:17:21;17.67;;;16.53;;
9547;SDS011;4812;51.992;8.648;2022-09-02T06:19:51;17.90;;;16.60;;
9547;SDS011;4812;51.992;8.648;2022-09-02T06:22:23;17.80;;;16.60;;
9547;SDS011;4812;51.992;8.648;2022-09-02T06:24:53;17.97;;;16.77;;
9547;SDS011;4812;51.992;8.648;2022-09-02T06:27:24;18.20;;;17.00;;
9547;SDS011;4812;51.992;8.648;2022-09-02T06:29:52;18.53;;;17.40;;
9547;SDS011;4812;51.992;8.648;2022-09-02T06:32:22;18.40;;;17.20;;
9547;SDS011;4812;51.992;8.648;2022-09-02T06:34:56;18.97;;;17.70;;
9547;SDS011;4812;51.992;8.648;2022-09-02T06:37:27;18.83;;;17.43;;
9547;SDS011;4812;51.992;8.648;2022-09-02T06:39:54;19.73;;;18.33;;
9547;SDS011;4812;51.992;8.648;2022-09-02T06:42:24;19.50;;;18.00;;
9547;SDS011;4812;51.992;8.648;2022-09-02T06:45:06;20.03;;;18.73;;
9547;SDS011;4812;51.992;8.648;2022-09-02T06:47:36;20.20;;;18.80;;
9547;SDS011;4812;51.992;8.648;2022-09-02T06:50:04;20.00;;;18.60;;
9547;SDS011;4812;51.992;8.648;2022-09-02T06:52:34;20.80;;;19.30;;
9547;SDS011;4812;51.992;8.648;2022-09-02T06:55:03;20.47;;;19.13;;
9547;SDS011;4812;51.992;8.648;2022-09-02T06:57:31;20.80;;;19.27;;
9547;SDS011;4812;51.992;8.648;2022-09-02T07:00:03;21.20;;;19.43;;
9547;SDS011;4812;51.992;8.648;2022-09-02T07:02:32;20.63;;;19.07;;
9547;SDS011;4812;51.992;8.648;2022-09-02T07:05:02;21.07;;;19.57;;
9547;SDS011;4812;51.992;8.648;2022-09-02T07:07:37;20.90;;;19.50;;
9547;SDS011;4812;51.992;8.648;2022-09-02T07:10:11;20.93;;;19.53;;
9547;SDS011;4812;51.992;8.648;2022-09-02T07:12:43;21.93;;;20.20;;
9547;SDS011;4812;51.992;8.648;2022-09-02T07:15:14;20.60;;;19.30;;
9547;SDS011;4812;51.992;8.648;2022-09-02T07:17:42;21.17;;;19.77;;
9547;SDS011;4812;51.992;8.648;2022-09-02T07:20:15;21.30;;;19.80;;
9547;SDS011;4812;51.992;8.648;2022-09-02T07:22:50;21.23;;;19.63;;
9547;SDS011;4812;51.992;8.648;2022-09-02T07:25:19;21.23;;;19.73;;
9547;SDS011;4812;51.992;8.648;2022-09-02T07:27:49;21.93;;;20.10;;
9547;SDS011;4812;51.992;8.648;2022-09-02T07:30:17;20.53;;;19.23;;
9547;SDS011;4812;51.992;8.648;2022-09-02T07:32:49;20.00;;;18.70;;
9547;SDS011;4812;51.992;8.648;2022-09-02T07:35:20;16.33;;;15.30;;
9547;SDS011;4812;51.992;8.648;2022-09-02T07:37:48;16.00;;;15.00;;
9547;SDS011;4812;51.992;8.648;2022-09-02T07:40:19;15.97;;;15.07;;
9547;SDS011;4812;51.992;8.648;2022-09-02T07:42:48;15.83;;;14.93;;
9547;SDS011;4812;51.992;8.648;2022-09-02T07:45:17;15.90;;;15.00;;
9547;SDS011;4812;51.992;8.648;2022-09-02T07:47:45;16.63;;;15.63;;
9547;SDS011;4812;51.992;8.648;2022-09-02T07:50:14;16.83;;;15.73;;
9547;SDS011;4812;51.992;8.648;2022-09-02T07:52:50;16.30;;;15.30;;
9547;SDS011;4812;51.992;8.648;2022-09-02T07:55:19;15.80;;;14.90;;
9547;SDS011;4812;51.992;8.648;2022-09-02T07:57:49;18.13;;;16.83;;
9547;SDS011;4812;51.992;8.648;2022-09-02T08:00:18;16.70;;;15.57;;
9547;SDS011;4812;51.992;8.648;2022-09-02T08:02:49;16.40;;;15.40;;
9547;SDS011;4812;51.992;8.648;2022-09-02T08:05:23;16.57;;;15.47;;
9547;SDS011;4812;51.992;8.648;2022-09-02T08:07:51;16.63;;;15.63;;
9547;SDS011;4812;51.992;8.648;2022-09-02T08:10:20;16.83;;;15.67;;
9547;SDS011;4812;51.992;8.648;2022-09-02T08:12:50;16.33;;;15.33;;
9547;SDS011;4812;51.992;8.648;2022-09-02T08:15:18;16.70;;;15.53;;
9547;SDS011;4812;51.992;8.648;2022-09-02T08:17:47;16.93;;;15.83;;
9547;SDS011;4812;51.992;8.648;2022-09-02T08:20:15;16.50;;;15.50;;
9547;SDS011;4812;51.992;8.648;2022-09-02T08:22:43;16.37;;;15.20;;
9547;SDS011;4812;51.992;8.648;2022-09-02T08:25:25;16.47;;;15.57;;
9547;SDS011;4812;51.992;8.648;2022-09-02T08:27:53;16.03;;;15.03;;
9547;SDS011;4812;51.992;8.648;2022-09-02T08:30:21;16.73;;;15.63;;
9547;SDS011;4812;51.992;8.648;2022-09-02T08:32:48;15.97;;;15.07;;
9547;SDS011;4812;51.992;8.648;2022-09-02T08:35:16;17.27;;;15.53;;
9547;SDS011;4812;51.992;8.648;2022-09-02T08:37:43;16.50;;;15.30;;
9547;SDS011;4812;51.992;8.648;2022-09-02T08:40:12;16.80;;;15.80;;
9547;SDS011;4812;51.992;8.648;2022-09-02T08:42:44;16.93;;;15.83;;
9547;SDS011;4812;51.992;8.648;2022-09-02T08:45:17;17.10;;;16.00;;
9547;SDS011;4812;51.992;8.648;2022-09-02T08:47:48;16.57;;;15.57;;
9547;SDS011;4812;51.992;8.648;2022-09-02T08:50:20;17.00;;;16.00;;
9547;SDS011;4812;51.992;8.648;2022-09-02T08:52:52;16.13;;;15.13;;
9547;SDS011;4812;51.992;8.648;2022-09-02T08:55:26;16.37;;;15.37;;
9547;SDS011;4812;51.992;8.648;2022-09-02T08:57:56;16.23;;;15.27;;
9547;SDS011;4812;51.992;8.648;2022-09-02T09:00:24;16.27;;;15.37;;
9547;SDS011;4812;51.992;8.648;2022-09-02T09:02:53;16.90;;;15.50;;
9547;SDS011;4812;51.992;8.648;2022-09-02T09:05:27;16.43;;;15.43;;
9547;SDS011;4812;51.992;8.648;2022-09-02T09:08:02;16.83;;;15.53;;
9547;SDS011;4812;51.992;8.648;2022-09-02T09:10:42;16.17;;;15.17;;
9547;SDS011;4812;51.992;8.648;2022-09-02T09:13:25;17.07;;;15.97;;
9547;SDS011;4812;51.992;8.648;2022-09-02T09:16:12;17.13;;;15.93;;
9547;SDS011;4812;51.992;8.648;2022-09-02T09:18:47;16.90;;;15.70;;
9547;SDS011;4812;51.992;8.648;2022-09-02T09:21:21;16.97;;;15.97;;
9547;SDS011;4812;51.992;8.648;2022-09-02T09:23:49;16.73;;;15.63;;
9547;SDS011;4812;51.992;8.648;2022-09-02T09:26:19;17.10;;;16.00;;
9547;SDS011;4812;51.992;8.648;2022-09-02T09:28:54;16.40;;;15.50;;
9547;SDS011;4812;51.992;8.648;2022-09-02T09:31:26;16.50;;;15.60;;
9547;SDS011;4812;51.992;8.648;2022-09-02T09:33:57;16.67;;;15.67;;
9547;SDS011;4812;51.992;8.648;2022-09-02T09:39:20;16.70;;;15.70;;
9547;SDS011;4812;51.992;8.648;2022-09-02T09:41:52;16.50;;;15.50;;
9547;SDS011;4812;51.992;8.648;2022-09-02T09:47:17;16.57;;;15.57;;
9547;SDS011;4812;51.992;8.648;2022-09-02T09:49:46;16.30;;;15.30;;
9547;SDS011;4812;51.992;8.648;2022-09-02T09:52:23;16.87;;;15.57;;
9547;SDS011;4812;51.992;8.648;2022-09-02T09:55:09;16.40;;;15.30;;
9547;SDS011;4812;51.992;8.648;2022-09-02T09:57:40;16.90;;;15.80;;
9547;SDS011;4812;51.992;8.648;2022-09-02T10:00:19;16.40;;;15.40;;
9547;SDS011;4812;51.992;8.648;2022-09-02T10:02:49;16.60;;;15.60;;
9547;SDS011;4812;51.992;8.648;2022-09-02T10:05:26;16.30;;;15.30;;
9547;SDS011;4812;51.992;8.648;2022-09-02T10:07:57;16.10;;;15.00;;
9547;SDS011;4812;51.992;8.648;2022-09-02T10:10:27;16.17;;;15.27;;
9547;SDS011;4812;51.992;8.648;2022-09-02T10:12:57;17.07;;;15.67;;
9547;SDS011;4812;51.992;8.648;2022-09-02T10:15:33;16.40;;;15.40;;
9547;SDS011;4812;51.992;8.648;2022-09-02T10:18:09;15.80;;;14.80;;
9547;SDS011;4812;51.992;8.648;2022-09-02T10:20:44;15.83;;;14.83;;
9547;SDS011;4812;51.992;8.648;2022-09-02T10:23:40;16.67;;;15.53;;
9547;SDS011;4812;51.992;8.648;2022-09-02T10:26:15;16.07;;;15.17;;
9547;SDS011;4812;51.992;8.648;2022-09-02T10:28:57;15.50;;;14.53;;
9547;SDS011;4812;51.992;8.648;2022-09-02T10:31:36;17.17;;;15.80;;
9547;SDS011;4812;51.992;8.648;2022-09-02T10:34:12;16.53;;;15.30;;
9547;SDS011;4812;51.992;8.648;2022-09-02T10:36:47;15.80;;;14.90;;
9547;SDS011;4812;51.992;8.648;2022-09-02T10:39:32;15.83;;;14.73;;
9547;SDS011;4812;51.992;8.648;2022-09-02T10:42:11;15.70;;;14.70;;
9547;SDS011;4812;51.992;8.648;2022-09-02T10:44:43;15.70;;;14.80;;
9547;SDS011;4812;51.992;8.648;2022-09-02T10:47:29;15.50;;;14.70;;
9547;SDS011;4812;51.992;8.648;2022-09-02T10:50:02;15.90;;;14.70;;
9547;SDS011;4812;51.992;8.648;2022-09-02T10:52:43;15.60;;;14.70;;
9547;SDS011;4812;51.992;8.648;2022-09-02T10:55:19;15.57;;;14.67;;
9547;SDS011;4812;51.992;8.648;2022-09-02T10:57:51;15.57;;;14.63;;
9547;SDS011;4812;51.992;8.648;2022-09-02T11:00:21;15.33;;;14.53;;
9547;SDS011;4812;51.992;8.648;2022-09-02T11:02:52;15.17;;;14.20;;
9547;SDS011;4812;51.992;8.648;2022-09-02T11:05:22;15.47;;;14.53;;
9547;SDS011;4812;51.992;8.648;2022-09-02T11:07:54;15.57;;;14.67;;
9547;SDS011;4812;51.992;8.648;2022-09-02T11:10:24;16.20;;;15.20;;
9547;SDS011;4812;51.992;8.648;2022-09-02T11:12:56;16.37;;;14.90;;
9547;SDS011;4812;51.992;8.648;2022-09-02T11:15:31;15.30;;;14.50;;
9547;SDS011;4812;51.992;8.648;2022-09-02T11:18:10;15.73;;;14.73;;
9547;SDS011;4812;51.992;8.648;2022-09-02T11:20:46;15.43;;;14.53;;
9547;SDS011;4812;51.992;8.648;2022-09-02T11:23:17;15.07;;;14.07;;
9547;SDS011;4812;51.992;8.648;2022-09-02T11:25:48;15.00;;;14.20;;
9547;SDS011;4812;51.992;8.648;2022-09-02T11:28:25;15.43;;;14.33;;
9547;SDS011;4812;51.992;8.648;2022-09-02T11:30:59;15.00;;;14.00;;
9547;SDS011;4812;51.992;8.648;2022-09-02T11:33:36;15.50;;;14.60;;
9547;SDS011;4812;51.992;8.648;2022-09-02T11:36:11;15.43;;;14.53;;
9547;SDS011;4812;51.992;8.648;2022-09-02T11:38:40;15.57;;;14.67;;
9547;SDS011;4812;51.992;8.648;2022-09-02T11:41:13;15.23;;;14.30;;
9547;SDS011;4812;51.992;8.648;2022-09-02T11:44:04;15.68;;;14.68;;
9547;SDS011;4812;51.992;8.648;2022-09-02T11:46:47;15.63;;;14.70;;
9547;SDS011;4812;51.992;8.648;2022-09-02T11:49:24;15.27;;;14.38;;
9547;SDS011;4812;51.992;8.648;2022-09-02T11:52:02;15.90;;;14.88;;
9547;SDS011;4812;51.992;8.648;2022-09-02T11:54:34;15.75;;;14.65;;
9547;SDS011;4812;51.992;8.648;2022-09-02T11:57:04;15.50;;;14.68;;
9547;SDS011;4812;51.992;8.648;2022-09-02T12:02:38;14.90;;;14.10;;
9547;SDS011;4812;51.992;8.648;2022-09-02T12:17:35;16.90;;;15.60;;
9547;SDS011;4812;51.992;8.648;2022-09-02T12:20:08;16.10;;;15.20;;
9547;SDS011;4812;51.992;8.648;2022-09-02T12:22:37;16.30;;;15.30;;
9547;SDS011;4812;51.992;8.648;2022-09-02T12:25:32;15.45;;;14.55;;
9547;SDS011;4812;51.992;8.648;2022-09-02T12:28:13;15.40;;;14.50;;
9547;SDS011;4812;51.992;8.648;2022-09-02T12:31:10;15.50;;;14.50;;
9547;SDS011;4812;51.992;8.648;2022-09-02T12:33:41;15.75;;;14.65;;
9547;SDS011;4812;51.992;8.648;2022-09-02T12:42:15;16.05;;;14.95;;
9547;SDS011;4812;51.992;8.648;2022-09-02T12:44:51;15.90;;;14.90;;
9547;SDS011;4812;51.992;8.648;2022-09-02T12:47:27;15.88;;;14.88;;
9547;SDS011;4812;51.992;8.648;2022-09-02T12:50:01;15.70;;;14.85;;
9547;SDS011;4812;51.992;8.648;2022-09-02T12:52:39;16.20;;;15.20;;
9547;SDS011;4812;51.992;8.648;2022-09-02T12:55:09;15.95;;;15.02;;
9547;SDS011;4812;51.992;8.648;2022-09-02T12:57:41;16.03;;;15.10;;
9547;SDS011;4812;51.992;8.648;2022-09-02T13:00:14;16.13;;;15.23;;
9547;SDS011;4812;51.992;8.648;2022-09-02T13:02:48;16.10;;;15.00;;
9547;SDS011;4812;51.992;8.648;2022-09-02T13:05:24;16.10;;;15.20;;
9547;SDS011;4812;51.992;8.648;2022-09-02T13:08:02;16.33;;;15.43;;
9547;SDS011;4812;51.992;8.648;2022-09-02T13:10:43;16.93;;;15.67;;
9547;SDS011;4812;51.992;8.648;2022-09-02T13:13:26;16.80;;;15.75;;
9547;SDS011;4812;51.992;8.648;2022-09-02T13:16:10;16.33;;;15.23;;
9547;SDS011;4812;51.992;8.648;2022-09-02T13:18:49;16.20;;;15.30;;
9547;SDS011;4812;51.992;8.648;2022-09-02T13:24:40;16.27;;;15.38;;
9547;SDS011;4812;51.992;8.648;2022-09-02T13:27:25;15.93;;;15.02;;
9547;SDS011;4812;51.992;8.648;2022-09-02T13:30:21;15.30;;;14.43;;
9547;SDS011;4812;51.992;8.648;2022-09-02T13:32:56;15.50;;;14.63;;
9547;SDS011;4812;51.992;8.648;2022-09-02T13:35:26;15.35;;;14.48;;
9547;SDS011;4812;51.992;8.648;2022-09-02T13:37:56;16.38;;;15.27;;
9547;SDS011;4812;51.992;8.648;2022-09-02T13:40:26;15.48;;;14.40;;
9547;SDS011;4812;51.992;8.648;2022-09-02T13:42:55;15.10;;;14.30;;
9547;SDS011;4812;51.992;8.648;2022-09-02T13:45:24;15.60;;;14.50;;
9547;SDS011;4812;51.992;8.648;2022-09-02T13:47:52;15.40;;;14.57;;
9547;SDS011;4812;51.992;8.648;2022-09-02T13:50:23;15.55;;;14.65;;
9547;SDS011;4812;51.992;8.648;2022-09-02T13:52:55;15.50;;;14.63;;
9547;SDS011;4812;51.992;8.648;2022-09-02T13:55:46;15.60;;;14.60;;
9547;SDS011;4812;51.992;8.648;2022-09-02T13:58:19;15.40;;;14.40;;
9547;SDS011;4812;51.992;8.648;2022-09-02T14:00:49;15.33;;;14.43;;
9547;SDS011;4812;51.992;8.648;2022-09-02T14:03:17;15.63;;;14.73;;
9547;SDS011;4812;51.992;8.648;2022-09-02T14:05:48;15.70;;;14.57;;
9547;SDS011;4812;51.992;8.648;2022-09-02T14:08:18;15.63;;;14.63;;
9547;SDS011;4812;51.992;8.648;2022-09-02T14:10:49;15.43;;;14.57;;
9547;SDS011;4812;51.992;8.648;2022-09-02T14:13:19;15.70;;;14.80;;
9547;SDS011;4812;51.992;8.648;2022-09-02T14:15:47;15.32;;;14.40;;
9547;SDS011;4812;51.992;8.648;2022-09-02T14:18:16;15.37;;;14.53;;
9547;SDS011;4812;51.992;8.648;2022-09-02T14:20:56;14.77;;;13.98;;
9547;SDS011;4812;51.992;8.648;2022-09-02T14:23:25;15.32;;;14.20;;
9547;SDS011;4812;51.992;8.648;2022-09-02T14:25:54;15.27;;;14.37;;
9547;SDS011;4812;51.992;8.648;2022-09-02T14:28:24;15.38;;;14.30;;
9547;SDS011;4812;51.992;8.648;2022-09-02T14:30:53;15.53;;;14.30;;
9547;SDS011;4812;51.992;8.648;2022-09-02T14:33:38;15.23;;;14.43;;
9547;SDS011;4812;51.992;8.648;2022-09-02T14:36:10;15.37;;;14.53;;
9547;SDS011;4812;51.992;8.648;2022-09-02T14:38:48;15.83;;;14.73;;
9547;SDS011;4812;51.992;8.648;2022-09-02T14:41:18;15.80;;;14.80;;
9547;SDS011;4812;51.992;8.648;2022-09-02T14:43:47;15.57;;;14.67;;
9547;SDS011;4812;51.992;8.648;2022-09-02T14:46:21;16.13;;;15.03;;
9547;SDS011;4812;51.992;8.648;2022-09-02T14:48:51;15.73;;;14.70;;
9547;SDS011;4812;51.992;8.648;2022-09-02T14:51:30;16.00;;;15.00;;
9547;SDS011;4812;51.992;8.648;2022-09-02T14:54:01;15.20;;;14.17;;
9547;SDS011;4812;51.992;8.648;2022-09-02T14:56:41;15.53;;;14.63;;
9547;SDS011;4812;51.992;8.648;2022-09-02T14:59:10;15.60;;;14.60;;
9547;SDS011;4812;51.992;8.648;2022-09-02T15:01:38;15.60;;;14.63;;
9547;SDS011;4812;51.992;8.648;2022-09-02T15:04:07;15.40;;;14.60;;
9547;SDS011;4812;51.992;8.648;2022-09-02T15:06:37;15.37;;;14.57;;
9547;SDS011;4812;51.992;8.648;2022-09-02T15:09:04;15.90;;;14.88;;
9547;SDS011;4812;51.992;8.648;2022-09-02T15:11:32;15.65;;;14.65;;
9547;SDS011;4812;51.992;8.648;2022-09-02T15:14:00;15.60;;;14.70;;
9547;SDS011;4812;51.992;8.648;2022-09-02T15:16:27;15.00;;;14.20;;
9547;SDS011;4812;51.992;8.648;2022-09-02T15:18:55;15.43;;;14.43;;
9547;SDS011;4812;51.992;8.648;2022-09-02T15:21:22;15.40;;;14.52;;
9547;SDS011;4812;51.992;8.648;2022-09-02T15:23:51;15.23;;;14.43;;
9547;SDS011;4812;51.992;8.648;2022-09-02T15:26:19;16.25;;;14.95;;
9547;SDS011;4812;51.992;8.648;2022-09-02T15:28:47;15.32;;;14.52;;
9547;SDS011;4812;51.992;8.648;2022-09-02T15:31:15;15.57;;;14.67;;
9547;SDS011;4812;51.992;8.648;2022-09-02T15:33:47;16.20;;;15.27;;
9547;SDS011;4812;51.992;8.648;2022-09-02T15:36:16;15.80;;;14.80;;
9547;SDS011;4812;51.992;8.648;2022-09-02T15:38:44;15.75;;;14.65;;
9547;SDS011;4812;51.992;8.648;2022-09-02T15:41:14;15.70;;;14.80;;
9547;SDS011;4812;51.992;8.648;2022-09-02T15:43:42;15.30;;;14.43;;
9547;SDS011;4812;51.992;8.648;2022-09-02T15:46:18;15.50;;;14.67;;